Portada
METAR-TAF:

METAR-TAF

Aeropuertos :

Aeropuerto de Florø

Florø, Noruega

latitud: 61-35N, longitud: 005-02E, altitud: 0 m

Observación

El informe se hizo hace 27 minutos, a las 22:20 UTC
Viento 4 kt del sureste
Temperatura 13°C
Humedad 88%
Presión 1011 hPa
Visibilidad 10 km o más

METAR: ENFL 212220Z AUTO 13004KT 9999NDV OVC064/// 13/11 Q1011

Hora: 00:47 (22:47 UTC)

Pronóstico

El informe se hizo hace 2 horas y 47 minutos, a las 20:00 UTC
Pronóstico válido del 21 a las 21 UTC al 22 a las 06 UTC
Viento 5 kt del oeste
Visibilidad 10 km o más
sin nubes por debajo de 1500 m y sin presencia de cumulonimbus.
Probabilidad 30% :
Temporalmente
del 21 a las 21 UTC al 21 a las 24 UTC
Escasas nubes a una altura de 6000 ft, Cumulonimbus.

TAF: ENFL 212000Z 2121/2206 26005KT CAVOK PROB30 TEMPO 2121/2124 FEW060CB

Observaciones y pronósticos meteorológicos de más de 4000 aeropuertos (mensajes METAR y TAF).

Los puntos amarillos y rojos representan las estaciones disponibles.

Ponga el ratón en el punto deseado para ver el nombre de la estación.

Haga clic para ver las observaciones y los pronósticos meteorológicos.

Para cambiar el mapa : haga clic en los botones verdes con una cruz de color negro para hacer un zoom, en el botón verde con un guión para alejar o en las flechas verdes para mapas adyacentes.


METAR-TAF: